sensor_id;sensor_type;location;lat;lon;timestamp;P1;durP1;ratioP1;P2;durP2;ratioP2
4650;SDS011;2338;49.602;8.722;2023-04-24T00:00:22;1.83;;;1.00;;
4650;SDS011;2338;49.602;8.722;2023-04-24T00:03:08;3.37;;;1.20;;
4650;SDS011;2338;49.602;8.722;2023-04-24T00:05:54;1.80;;;1.10;;
4650;SDS011;2338;49.602;8.722;2023-04-24T00:08:42;3.73;;;1.33;;
4650;SDS011;2338;49.602;8.722;2023-04-24T00:11:27;4.37;;;1.07;;
4650;SDS011;2338;49.602;8.722;2023-04-24T00:14:13;3.77;;;1.83;;
4650;SDS011;2338;49.602;8.722;2023-04-24T00:16:59;5.63;;;1.43;;
4650;SDS011;2338;49.602;8.722;2023-04-24T00:19:45;7.57;;;1.10;;
4650;SDS011;2338;49.602;8.722;2023-04-24T00:22:31;3.40;;;1.30;;
4650;SDS011;2338;49.602;8.722;2023-04-24T00:25:19;2.57;;;1.23;;
4650;SDS011;2338;49.602;8.722;2023-04-24T00:28:04;4.93;;;1.50;;
4650;SDS011;2338;49.602;8.722;2023-04-24T00:30:50;7.33;;;1.20;;
4650;SDS011;2338;49.602;8.722;2023-04-24T00:33:36;3.87;;;1.60;;
4650;SDS011;2338;49.602;8.722;2023-04-24T00:36:21;2.53;;;1.57;;
4650;SDS011;2338;49.602;8.722;2023-04-24T00:39:07;2.40;;;1.50;;
4650;SDS011;2338;49.602;8.722;2023-04-24T00:41:55;3.07;;;1.20;;
4650;SDS011;2338;49.602;8.722;2023-04-24T00:44:41;2.77;;;1.40;;
4650;SDS011;2338;49.602;8.722;2023-04-24T00:47:27;4.93;;;1.17;;
4650;SDS011;2338;49.602;8.722;2023-04-24T00:50:14;3.67;;;1.70;;
4650;SDS011;2338;49.602;8.722;2023-04-24T00:53:00;4.10;;;1.80;;
4650;SDS011;2338;49.602;8.722;2023-04-24T00:55:46;2.70;;;1.33;;
4650;SDS011;2338;49.602;8.722;2023-04-24T00:58:33;2.53;;;1.50;;
4650;SDS011;2338;49.602;8.722;2023-04-24T01:01:19;4.60;;;1.40;;
4650;SDS011;2338;49.602;8.722;2023-04-24T01:04:05;2.73;;;1.30;;
4650;SDS011;2338;49.602;8.722;2023-04-24T01:06:51;5.97;;;1.37;;
4650;SDS011;2338;49.602;8.722;2023-04-24T01:09:39;2.40;;;1.10;;
4650;SDS011;2338;49.602;8.722;2023-04-24T01:12:25;3.47;;;1.30;;
4650;SDS011;2338;49.602;8.722;2023-04-24T01:15:13;4.27;;;1.47;;
4650;SDS011;2338;49.602;8.722;2023-04-24T01:17:59;2.17;;;1.40;;
4650;SDS011;2338;49.602;8.722;2023-04-24T01:20:45;7.87;;;1.37;;
4650;SDS011;2338;49.602;8.722;2023-04-24T01:23:33;3.17;;;1.33;;
4650;SDS011;2338;49.602;8.722;2023-04-24T01:26:19;3.93;;;1.13;;
4650;SDS011;2338;49.602;8.722;2023-04-24T01:29:04;2.70;;;1.40;;
4650;SDS011;2338;49.602;8.722;2023-04-24T01:31:50;3.13;;;1.30;;
4650;SDS011;2338;49.602;8.722;2023-04-24T01:34:36;2.40;;;1.30;;
4650;SDS011;2338;49.602;8.722;2023-04-24T01:37:23;6.33;;;2.43;;
4650;SDS011;2338;49.602;8.722;2023-04-24T01:40:12;8.83;;;1.40;;
4650;SDS011;2338;49.602;8.722;2023-04-24T01:42:58;2.80;;;1.60;;
4650;SDS011;2338;49.602;8.722;2023-04-24T01:45:44;4.30;;;1.10;;
4650;SDS011;2338;49.602;8.722;2023-04-24T01:48:29;2.50;;;1.10;;
4650;SDS011;2338;49.602;8.722;2023-04-24T01:51:15;3.00;;;1.10;;
4650;SDS011;2338;49.602;8.722;2023-04-24T01:54:01;2.73;;;1.30;;
4650;SDS011;2338;49.602;8.722;2023-04-24T01:56:48;2.17;;;1.03;;
4650;SDS011;2338;49.602;8.722;2023-04-24T01:59:34;2.57;;;1.03;;
4650;SDS011;2338;49.602;8.722;2023-04-24T02:02:20;1.80;;;1.00;;
4650;SDS011;2338;49.602;8.722;2023-04-24T02:05:07;2.53;;;1.00;;
4650;SDS011;2338;49.602;8.722;2023-04-24T02:07:55;3.20;;;1.50;;
4650;SDS011;2338;49.602;8.722;2023-04-24T02:10:40;4.00;;;1.23;;
4650;SDS011;2338;49.602;8.722;2023-04-24T02:13:27;4.43;;;1.40;;
4650;SDS011;2338;49.602;8.722;2023-04-24T02:16:13;2.43;;;1.27;;
4650;SDS011;2338;49.602;8.722;2023-04-24T02:18:59;1.70;;;1.00;;
4650;SDS011;2338;49.602;8.722;2023-04-24T02:21:45;2.97;;;1.70;;
4650;SDS011;2338;49.602;8.722;2023-04-24T02:24:30;6.97;;;1.33;;
4650;SDS011;2338;49.602;8.722;2023-04-24T02:27:16;3.20;;;1.27;;
4650;SDS011;2338;49.602;8.722;2023-04-24T02:30:04;2.20;;;1.30;;
4650;SDS011;2338;49.602;8.722;2023-04-24T02:32:52;2.80;;;1.20;;
4650;SDS011;2338;49.602;8.722;2023-04-24T02:35:38;2.47;;;1.20;;
4650;SDS011;2338;49.602;8.722;2023-04-24T02:38:24;4.37;;;1.50;;
4650;SDS011;2338;49.602;8.722;2023-04-24T02:41:10;2.90;;;1.10;;
4650;SDS011;2338;49.602;8.722;2023-04-24T02:43:55;2.20;;;1.17;;
4650;SDS011;2338;49.602;8.722;2023-04-24T02:46:43;3.70;;;1.87;;
4650;SDS011;2338;49.602;8.722;2023-04-24T02:49:28;2.57;;;1.30;;
4650;SDS011;2338;49.602;8.722;2023-04-24T02:52:14;4.50;;;1.60;;
4650;SDS011;2338;49.602;8.722;2023-04-24T02:55:00;7.17;;;1.80;;
4650;SDS011;2338;49.602;8.722;2023-04-24T02:57:45;3.90;;;1.30;;
4650;SDS011;2338;49.602;8.722;2023-04-24T03:00:31;1.97;;;0.97;;
4650;SDS011;2338;49.602;8.722;2023-04-24T03:03:18;5.23;;;1.60;;
4650;SDS011;2338;49.602;8.722;2023-04-24T03:06:04;6.23;;;1.63;;
4650;SDS011;2338;49.602;8.722;2023-04-24T03:08:52;2.53;;;1.53;;
4650;SDS011;2338;49.602;8.722;2023-04-24T03:11:37;2.80;;;1.80;;
4650;SDS011;2338;49.602;8.722;2023-04-24T03:14:24;4.63;;;2.00;;
4650;SDS011;2338;49.602;8.722;2023-04-24T03:17:10;2.90;;;1.50;;
4650;SDS011;2338;49.602;8.722;2023-04-24T03:19:57;3.57;;;1.30;;
4650;SDS011;2338;49.602;8.722;2023-04-24T03:22:42;3.80;;;1.43;;
4650;SDS011;2338;49.602;8.722;2023-04-24T03:25:28;4.93;;;1.57;;
4650;SDS011;2338;49.602;8.722;2023-04-24T03:28:14;2.23;;;1.50;;
4650;SDS011;2338;49.602;8.722;2023-04-24T03:31:00;2.47;;;1.30;;
4650;SDS011;2338;49.602;8.722;2023-04-24T03:33:46;3.43;;;1.33;;
4650;SDS011;2338;49.602;8.722;2023-04-24T03:36:33;3.30;;;1.57;;
4650;SDS011;2338;49.602;8.722;2023-04-24T03:39:18;4.93;;;1.73;;
4650;SDS011;2338;49.602;8.722;2023-04-24T03:42:04;3.33;;;1.50;;
4650;SDS011;2338;49.602;8.722;2023-04-24T03:44:50;8.67;;;1.60;;
4650;SDS011;2338;49.602;8.722;2023-04-24T03:47:36;4.13;;;1.83;;
4650;SDS011;2338;49.602;8.722;2023-04-24T03:50:21;2.20;;;1.60;;
4650;SDS011;2338;49.602;8.722;2023-04-24T03:53:08;3.17;;;1.77;;
4650;SDS011;2338;49.602;8.722;2023-04-24T03:55:54;4.70;;;2.17;;
4650;SDS011;2338;49.602;8.722;2023-04-24T03:58:39;9.40;;;2.10;;
4650;SDS011;2338;49.602;8.722;2023-04-24T04:01:25;9.83;;;2.37;;
4650;SDS011;2338;49.602;8.722;2023-04-24T04:04:11;6.40;;;2.20;;
4650;SDS011;2338;49.602;8.722;2023-04-24T04:06:57;3.87;;;2.40;;
4650;SDS011;2338;49.602;8.722;2023-04-24T04:09:46;4.90;;;2.30;;
4650;SDS011;2338;49.602;8.722;2023-04-24T04:12:31;3.03;;;2.20;;
4650;SDS011;2338;49.602;8.722;2023-04-24T04:15:17;3.17;;;2.10;;
4650;SDS011;2338;49.602;8.722;2023-04-24T04:18:03;3.37;;;2.43;;
4650;SDS011;2338;49.602;8.722;2023-04-24T04:20:49;3.90;;;2.57;;
4650;SDS011;2338;49.602;8.722;2023-04-24T04:23:34;4.00;;;2.30;;
4650;SDS011;2338;49.602;8.722;2023-04-24T04:26:21;3.23;;;2.20;;
4650;SDS011;2338;49.602;8.722;2023-04-24T04:29:09;4.73;;;2.60;;
4650;SDS011;2338;49.602;8.722;2023-04-24T04:31:55;6.20;;;3.00;;
4650;SDS011;2338;49.602;8.722;2023-04-24T04:34:41;3.97;;;2.80;;
4650;SDS011;2338;49.602;8.722;2023-04-24T04:37:29;5.23;;;3.00;;
4650;SDS011;2338;49.602;8.722;2023-04-24T04:40:14;6.33;;;2.90;;
4650;SDS011;2338;49.602;8.722;2023-04-24T04:43:01;4.50;;;3.30;;
4650;SDS011;2338;49.602;8.722;2023-04-24T04:45:46;4.10;;;3.63;;
4650;SDS011;2338;49.602;8.722;2023-04-24T04:48:32;4.57;;;3.33;;
4650;SDS011;2338;49.602;8.722;2023-04-24T04:51:18;4.33;;;3.00;;
4650;SDS011;2338;49.602;8.722;2023-04-24T04:54:04;6.87;;;3.27;;
4650;SDS011;2338;49.602;8.722;2023-04-24T04:56:50;4.77;;;3.40;;
4650;SDS011;2338;49.602;8.722;2023-04-24T04:59:37;4.80;;;3.10;;
4650;SDS011;2338;49.602;8.722;2023-04-24T05:02:22;4.70;;;3.80;;
4650;SDS011;2338;49.602;8.722;2023-04-24T05:05:08;4.90;;;3.20;;
4650;SDS011;2338;49.602;8.722;2023-04-24T05:07:54;4.33;;;2.90;;
4650;SDS011;2338;49.602;8.722;2023-04-24T05:10:40;6.03;;;3.50;;
4650;SDS011;2338;49.602;8.722;2023-04-24T05:13:25;4.67;;;2.83;;
4650;SDS011;2338;49.602;8.722;2023-04-24T05:16:13;6.90;;;3.90;;
4650;SDS011;2338;49.602;8.722;2023-04-24T05:18:58;10.40;;;3.07;;
4650;SDS011;2338;49.602;8.722;2023-04-24T05:21:44;5.20;;;3.10;;
4650;SDS011;2338;49.602;8.722;2023-04-24T05:24:30;3.40;;;2.90;;
4650;SDS011;2338;49.602;8.722;2023-04-24T05:27:15;4.07;;;3.30;;
4650;SDS011;2338;49.602;8.722;2023-04-24T05:30:01;4.10;;;3.30;;
4650;SDS011;2338;49.602;8.722;2023-04-24T05:32:49;5.03;;;3.97;;
4650;SDS011;2338;49.602;8.722;2023-04-24T05:35:35;4.03;;;3.23;;
4650;SDS011;2338;49.602;8.722;2023-04-24T05:38:20;4.20;;;3.70;;
4650;SDS011;2338;49.602;8.722;2023-04-24T05:41:06;5.23;;;3.80;;
4650;SDS011;2338;49.602;8.722;2023-04-24T05:43:51;4.77;;;3.80;;
4650;SDS011;2338;49.602;8.722;2023-04-24T05:46:37;7.63;;;4.17;;
4650;SDS011;2338;49.602;8.722;2023-04-24T05:49:24;5.03;;;3.83;;
4650;SDS011;2338;49.602;8.722;2023-04-24T05:52:10;8.63;;;4.60;;
4650;SDS011;2338;49.602;8.722;2023-04-24T05:54:56;5.53;;;3.80;;
4650;SDS011;2338;49.602;8.722;2023-04-24T05:57:41;8.40;;;4.57;;
4650;SDS011;2338;49.602;8.722;2023-04-24T06:00:27;6.43;;;3.73;;
4650;SDS011;2338;49.602;8.722;2023-04-24T06:03:13;6.93;;;4.27;;
4650;SDS011;2338;49.602;8.722;2023-04-24T06:06:00;5.90;;;4.83;;
4650;SDS011;2338;49.602;8.722;2023-04-24T06:08:46;5.57;;;4.30;;
4650;SDS011;2338;49.602;8.722;2023-04-24T06:11:32;6.20;;;4.60;;
4650;SDS011;2338;49.602;8.722;2023-04-24T06:14:17;5.30;;;4.47;;
4650;SDS011;2338;49.602;8.722;2023-04-24T06:17:03;5.13;;;4.63;;
4650;SDS011;2338;49.602;8.722;2023-04-24T06:19:49;6.57;;;5.77;;
4650;SDS011;2338;49.602;8.722;2023-04-24T06:22:36;6.73;;;4.77;;
4650;SDS011;2338;49.602;8.722;2023-04-24T06:25:24;7.43;;;4.67;;
4650;SDS011;2338;49.602;8.722;2023-04-24T06:28:10;7.83;;;4.80;;
4650;SDS011;2338;49.602;8.722;2023-04-24T06:30:56;8.97;;;5.97;;
4650;SDS011;2338;49.602;8.722;2023-04-24T06:33:42;6.70;;;5.20;;
4650;SDS011;2338;49.602;8.722;2023-04-24T06:36:28;5.73;;;4.30;;
4650;SDS011;2338;49.602;8.722;2023-04-24T06:39:15;7.13;;;5.00;;
4650;SDS011;2338;49.602;8.722;2023-04-24T06:42:01;8.53;;;5.43;;
4650;SDS011;2338;49.602;8.722;2023-04-24T06:44:46;7.37;;;5.20;;
4650;SDS011;2338;49.602;8.722;2023-04-24T06:47:32;7.10;;;4.93;;
4650;SDS011;2338;49.602;8.722;2023-04-24T06:50:18;8.90;;;5.40;;
4650;SDS011;2338;49.602;8.722;2023-04-24T06:53:03;8.63;;;5.63;;
4650;SDS011;2338;49.602;8.722;2023-04-24T06:55:50;7.97;;;4.83;;
4650;SDS011;2338;49.602;8.722;2023-04-24T06:58:36;6.83;;;5.40;;
4650;SDS011;2338;49.602;8.722;2023-04-24T07:01:22;6.80;;;5.00;;
4650;SDS011;2338;49.602;8.722;2023-04-24T07:04:08;7.30;;;5.43;;
4650;SDS011;2338;49.602;8.722;2023-04-24T07:06:53;10.83;;;5.77;;
4650;SDS011;2338;49.602;8.722;2023-04-24T07:09:39;7.43;;;4.90;;
4650;SDS011;2338;49.602;8.722;2023-04-24T07:12:27;6.83;;;4.80;;
4650;SDS011;2338;49.602;8.722;2023-04-24T07:15:13;5.77;;;4.47;;
4650;SDS011;2338;49.602;8.722;2023-04-24T07:17:58;6.90;;;4.13;;
4650;SDS011;2338;49.602;8.722;2023-04-24T07:20:44;5.37;;;4.43;;
4650;SDS011;2338;49.602;8.722;2023-04-24T07:23:30;4.00;;;3.60;;
4650;SDS011;2338;49.602;8.722;2023-04-24T07:26:16;5.47;;;3.30;;
4650;SDS011;2338;49.602;8.722;2023-04-24T07:29:03;4.27;;;3.17;;
4650;SDS011;2338;49.602;8.722;2023-04-24T07:31:48;3.80;;;2.60;;
4650;SDS011;2338;49.602;8.722;2023-04-24T07:34:34;6.37;;;3.80;;
4650;SDS011;2338;49.602;8.722;2023-04-24T07:37:20;3.93;;;3.10;;
4650;SDS011;2338;49.602;8.722;2023-04-24T07:40:06;8.73;;;3.27;;
4650;SDS011;2338;49.602;8.722;2023-04-24T07:42:52;4.57;;;2.60;;
4650;SDS011;2338;49.602;8.722;2023-04-24T07:45:39;3.47;;;2.77;;
4650;SDS011;2338;49.602;8.722;2023-04-24T07:48:25;6.00;;;2.97;;
4650;SDS011;2338;49.602;8.722;2023-04-24T07:51:11;3.73;;;2.77;;
4650;SDS011;2338;49.602;8.722;2023-04-24T07:53:57;3.00;;;2.40;;
4650;SDS011;2338;49.602;8.722;2023-04-24T07:56:43;3.43;;;2.23;;
4650;SDS011;2338;49.602;8.722;2023-04-24T07:59:28;4.50;;;2.13;;
4650;SDS011;2338;49.602;8.722;2023-04-24T08:02:15;2.40;;;1.70;;
4650;SDS011;2338;49.602;8.722;2023-04-24T08:05:01;5.60;;;2.20;;
4650;SDS011;2338;49.602;8.722;2023-04-24T08:07:47;2.50;;;1.77;;
4650;SDS011;2338;49.602;8.722;2023-04-24T08:10:33;2.60;;;1.90;;
4650;SDS011;2338;49.602;8.722;2023-04-24T08:13:19;7.80;;;2.70;;
4650;SDS011;2338;49.602;8.722;2023-04-24T08:16:05;4.50;;;2.60;;
4650;SDS011;2338;49.602;8.722;2023-04-24T08:18:52;2.90;;;2.10;;
4650;SDS011;2338;49.602;8.722;2023-04-24T08:21:38;3.57;;;2.00;;
4650;SDS011;2338;49.602;8.722;2023-04-24T08:24:24;6.77;;;2.63;;
4650;SDS011;2338;49.602;8.722;2023-04-24T08:27:10;4.00;;;2.67;;
4650;SDS011;2338;49.602;8.722;2023-04-24T08:29:56;3.97;;;2.60;;
4650;SDS011;2338;49.602;8.722;2023-04-24T08:32:42;7.50;;;2.80;;
4650;SDS011;2338;49.602;8.722;2023-04-24T08:35:29;3.30;;;2.63;;
4650;SDS011;2338;49.602;8.722;2023-04-24T08:38:15;3.93;;;2.70;;
4650;SDS011;2338;49.602;8.722;2023-04-24T08:41:01;2.70;;;2.40;;
4650;SDS011;2338;49.602;8.722;2023-04-24T08:43:48;3.87;;;2.70;;
4650;SDS011;2338;49.602;8.722;2023-04-24T08:46:34;5.03;;;3.00;;
4650;SDS011;2338;49.602;8.722;2023-04-24T08:49:20;4.00;;;2.50;;
4650;SDS011;2338;49.602;8.722;2023-04-24T08:52:10;4.47;;;2.10;;
4650;SDS011;2338;49.602;8.722;2023-04-24T08:54:57;5.03;;;2.50;;
4650;SDS011;2338;49.602;8.722;2023-04-24T08:57:45;3.30;;;2.80;;
4650;SDS011;2338;49.602;8.722;2023-04-24T09:00:34;3.87;;;2.73;;
4650;SDS011;2338;49.602;8.722;2023-04-24T09:03:20;4.30;;;3.53;;
4650;SDS011;2338;49.602;8.722;2023-04-24T09:06:06;4.33;;;3.87;;
4650;SDS011;2338;49.602;8.722;2023-04-24T09:08:55;5.13;;;3.43;;
4650;SDS011;2338;49.602;8.722;2023-04-24T09:11:44;4.17;;;2.97;;
4650;SDS011;2338;49.602;8.722;2023-04-24T09:14:31;8.27;;;3.17;;
4650;SDS011;2338;49.602;8.722;2023-04-24T09:17:20;4.03;;;3.63;;
4650;SDS011;2338;49.602;8.722;2023-04-24T09:20:06;7.20;;;3.30;;
4650;SDS011;2338;49.602;8.722;2023-04-24T09:22:53;5.30;;;3.40;;
4650;SDS011;2338;49.602;8.722;2023-04-24T09:25:41;8.50;;;3.10;;
4650;SDS011;2338;49.602;8.722;2023-04-24T09:28:27;5.40;;;3.47;;
4650;SDS011;2338;49.602;8.722;2023-04-24T09:31:18;8.50;;;4.43;;
4650;SDS011;2338;49.602;8.722;2023-04-24T09:34:05;6.30;;;3.43;;
4650;SDS011;2338;49.602;8.722;2023-04-24T09:36:51;5.23;;;3.90;;
4650;SDS011;2338;49.602;8.722;2023-04-24T09:39:37;4.93;;;3.60;;
4650;SDS011;2338;49.602;8.722;2023-04-24T09:42:25;4.40;;;3.60;;
4650;SDS011;2338;49.602;8.722;2023-04-24T09:45:14;8.70;;;2.60;;
4650;SDS011;2338;49.602;8.722;2023-04-24T09:47:59;3.80;;;2.53;;
4650;SDS011;2338;49.602;8.722;2023-04-24T09:50:45;3.73;;;2.87;;
4650;SDS011;2338;49.602;8.722;2023-04-24T09:53:31;4.57;;;2.80;;
4650;SDS011;2338;49.602;8.722;2023-04-24T09:56:17;4.80;;;2.73;;
4650;SDS011;2338;49.602;8.722;2023-04-24T09:59:05;7.90;;;2.87;;
4650;SDS011;2338;49.602;8.722;2023-04-24T10:01:52;2.67;;;2.30;;
4650;SDS011;2338;49.602;8.722;2023-04-24T10:04:38;5.57;;;2.47;;
4650;SDS011;2338;49.602;8.722;2023-04-24T10:07:25;4.67;;;2.63;;
4650;SDS011;2338;49.602;8.722;2023-04-24T10:10:11;6.33;;;2.40;;
4650;SDS011;2338;49.602;8.722;2023-04-24T10:12:57;6.03;;;3.10;;
4650;SDS011;2338;49.602;8.722;2023-04-24T10:15:45;4.20;;;2.50;;
4650;SDS011;2338;49.602;8.722;2023-04-24T10:18:33;5.20;;;3.00;;
4650;SDS011;2338;49.602;8.722;2023-04-24T10:21:19;4.00;;;2.80;;
4650;SDS011;2338;49.602;8.722;2023-04-24T10:24:05;5.47;;;3.10;;
4650;SDS011;2338;49.602;8.722;2023-04-24T10:26:51;5.87;;;3.17;;
4650;SDS011;2338;49.602;8.722;2023-04-24T10:29:38;3.33;;;2.60;;
4650;SDS011;2338;49.602;8.722;2023-04-24T10:32:26;5.40;;;3.27;;
4650;SDS011;2338;49.602;8.722;2023-04-24T10:35:12;7.00;;;3.70;;
4650;SDS011;2338;49.602;8.722;2023-04-24T10:38:01;4.87;;;3.83;;
4650;SDS011;2338;49.602;8.722;2023-04-24T10:40:50;4.37;;;3.33;;
4650;SDS011;2338;49.602;8.722;2023-04-24T10:43:36;4.47;;;3.20;;
4650;SDS011;2338;49.602;8.722;2023-04-24T10:46:21;5.60;;;3.23;;
4650;SDS011;2338;49.602;8.722;2023-04-24T10:49:08;4.30;;;2.87;;
4650;SDS011;2338;49.602;8.722;2023-04-24T10:51:54;2.80;;;2.00;;
4650;SDS011;2338;49.602;8.722;2023-04-24T10:54:46;4.30;;;2.50;;
4650;SDS011;2338;49.602;8.722;2023-04-24T10:57:33;2.93;;;2.63;;
4650;SDS011;2338;49.602;8.722;2023-04-24T11:00:19;6.00;;;2.20;;
4650;SDS011;2338;49.602;8.722;2023-04-24T11:03:06;5.10;;;2.67;;
4650;SDS011;2338;49.602;8.722;2023-04-24T11:06:08;3.97;;;1.80;;
4650;SDS011;2338;49.602;8.722;2023-04-24T11:08:57;5.03;;;2.27;;
4650;SDS011;2338;49.602;8.722;2023-04-24T11:11:47;5.40;;;2.70;;
4650;SDS011;2338;49.602;8.722;2023-04-24T11:17:45;4.80;;;2.77;;
4650;SDS011;2338;49.602;8.722;2023-04-24T11:20:31;5.07;;;3.03;;
4650;SDS011;2338;49.602;8.722;2023-04-24T11:23:18;4.93;;;3.20;;
4650;SDS011;2338;49.602;8.722;2023-04-24T11:26:10;5.40;;;3.10;;
4650;SDS011;2338;49.602;8.722;2023-04-24T11:29:05;4.97;;;2.90;;
4650;SDS011;2338;49.602;8.722;2023-04-24T11:31:52;5.07;;;3.07;;
4650;SDS011;2338;49.602;8.722;2023-04-24T11:34:38;3.60;;;3.10;;
4650;SDS011;2338;49.602;8.722;2023-04-24T11:37:24;3.77;;;2.40;;
4650;SDS011;2338;49.602;8.722;2023-04-24T11:40:14;6.80;;;2.90;;
4650;SDS011;2338;49.602;8.722;2023-04-24T11:43:01;5.67;;;3.30;;
4650;SDS011;2338;49.602;8.722;2023-04-24T11:45:49;4.20;;;3.40;;
4650;SDS011;2338;49.602;8.722;2023-04-24T11:48:35;6.33;;;3.10;;
4650;SDS011;2338;49.602;8.722;2023-04-24T11:51:23;7.70;;;2.77;;
4650;SDS011;2338;49.602;8.722;2023-04-24T11:54:10;3.57;;;2.93;;
4650;SDS011;2338;49.602;8.722;2023-04-24T11:56:57;3.17;;;2.47;;
4650;SDS011;2338;49.602;8.722;2023-04-24T11:59:43;4.73;;;2.97;;
4650;SDS011;2338;49.602;8.722;2023-04-24T12:02:29;5.60;;;3.30;;
4650;SDS011;2338;49.602;8.722;2023-04-24T12:05:18;6.57;;;3.90;;
4650;SDS011;2338;49.602;8.722;2023-04-24T12:08:05;4.70;;;3.67;;
4650;SDS011;2338;49.602;8.722;2023-04-24T12:10:51;4.37;;;3.33;;
4650;SDS011;2338;49.602;8.722;2023-04-24T12:13:38;4.03;;;3.60;;
4650;SDS011;2338;49.602;8.722;2023-04-24T12:16:24;4.90;;;3.90;;
4650;SDS011;2338;49.602;8.722;2023-04-24T12:19:11;8.90;;;3.80;;
4650;SDS011;2338;49.602;8.722;2023-04-24T12:22:00;6.67;;;4.33;;
4650;SDS011;2338;49.602;8.722;2023-04-24T12:24:57;6.57;;;4.10;;
4650;SDS011;2338;49.602;8.722;2023-04-24T12:27:44;8.30;;;3.70;;
4650;SDS011;2338;49.602;8.722;2023-04-24T12:30:32;6.00;;;3.77;;
4650;SDS011;2338;49.602;8.722;2023-04-24T12:33:19;5.07;;;3.40;;
4650;SDS011;2338;49.602;8.722;2023-04-24T12:36:05;5.47;;;3.43;;
4650;SDS011;2338;49.602;8.722;2023-04-24T12:38:55;6.43;;;3.40;;
4650;SDS011;2338;49.602;8.722;2023-04-24T12:41:49;5.87;;;4.17;;
4650;SDS011;2338;49.602;8.722;2023-04-24T12:44:36;8.13;;;3.53;;
4650;SDS011;2338;49.602;8.722;2023-04-24T12:47:23;6.57;;;3.53;;
4650;SDS011;2338;49.602;8.722;2023-04-24T12:50:09;6.70;;;3.70;;
4650;SDS011;2338;49.602;8.722;2023-04-24T12:52:56;5.13;;;3.53;;
4650;SDS011;2338;49.602;8.722;2023-04-24T12:55:42;6.67;;;4.10;;
4650;SDS011;2338;49.602;8.722;2023-04-24T12:58:29;5.53;;;3.47;;
4650;SDS011;2338;49.602;8.722;2023-04-24T13:01:15;9.53;;;3.97;;
4650;SDS011;2338;49.602;8.722;2023-04-24T13:04:02;10.53;;;4.10;;
4650;SDS011;2338;49.602;8.722;2023-04-24T13:06:47;12.80;;;4.10;;
4650;SDS011;2338;49.602;8.722;2023-04-24T13:09:34;7.17;;;4.00;;
4650;SDS011;2338;49.602;8.722;2023-04-24T13:12:20;5.93;;;4.20;;
4650;SDS011;2338;49.602;8.722;2023-04-24T13:15:07;10.33;;;4.47;;
4650;SDS011;2338;49.602;8.722;2023-04-24T13:17:53;4.90;;;4.23;;
4650;SDS011;2338;49.602;8.722;2023-04-24T13:20:40;7.83;;;4.10;;
4650;SDS011;2338;49.602;8.722;2023-04-24T13:23:26;9.10;;;4.70;;
4650;SDS011;2338;49.602;8.722;2023-04-24T13:26:11;9.63;;;5.40;;
4650;SDS011;2338;49.602;8.722;2023-04-24T13:28:57;6.23;;;4.90;;
4650;SDS011;2338;49.602;8.722;2023-04-24T13:31:43;5.90;;;3.73;;
4650;SDS011;2338;49.602;8.722;2023-04-24T13:34:29;7.27;;;4.60;;
4650;SDS011;2338;49.602;8.722;2023-04-24T13:37:16;7.17;;;3.90;;
4650;SDS011;2338;49.602;8.722;2023-04-24T13:40:02;8.33;;;3.97;;
4650;SDS011;2338;49.602;8.722;2023-04-24T13:42:49;4.10;;;2.93;;
4650;SDS011;2338;49.602;8.722;2023-04-24T13:45:35;5.80;;;3.50;;
4650;SDS011;2338;49.602;8.722;2023-04-24T13:48:21;4.57;;;3.33;;
4650;SDS011;2338;49.602;8.722;2023-04-24T13:51:06;7.13;;;4.03;;
4650;SDS011;2338;49.602;8.722;2023-04-24T13:53:54;5.00;;;3.50;;
4650;SDS011;2338;49.602;8.722;2023-04-24T13:56:40;5.53;;;3.60;;
4650;SDS011;2338;49.602;8.722;2023-04-24T13:59:25;8.00;;;3.43;;
4650;SDS011;2338;49.602;8.722;2023-04-24T14:02:11;4.80;;;3.47;;
4650;SDS011;2338;49.602;8.722;2023-04-24T14:04:56;5.80;;;3.43;;
4650;SDS011;2338;49.602;8.722;2023-04-24T14:07:42;5.60;;;4.10;;
4650;SDS011;2338;49.602;8.722;2023-04-24T14:10:29;8.87;;;3.80;;
4650;SDS011;2338;49.602;8.722;2023-04-24T14:13:14;5.13;;;3.23;;
4650;SDS011;2338;49.602;8.722;2023-04-24T14:16:00;4.17;;;3.43;;
4650;SDS011;2338;49.602;8.722;2023-04-24T14:18:46;3.87;;;2.90;;
4650;SDS011;2338;49.602;8.722;2023-04-24T14:21:32;8.20;;;3.10;;
4650;SDS011;2338;49.602;8.722;2023-04-24T14:24:18;5.77;;;3.80;;
4650;SDS011;2338;49.602;8.722;2023-04-24T14:27:05;5.93;;;3.60;;
4650;SDS011;2338;49.602;8.722;2023-04-24T14:29:51;5.90;;;3.10;;
4650;SDS011;2338;49.602;8.722;2023-04-24T14:32:37;9.60;;;4.10;;
4650;SDS011;2338;49.602;8.722;2023-04-24T14:35:23;6.67;;;3.67;;
4650;SDS011;2338;49.602;8.722;2023-04-24T14:38:09;9.07;;;3.77;;
4650;SDS011;2338;49.602;8.722;2023-04-24T14:40:55;11.70;;;3.70;;
4650;SDS011;2338;49.602;8.722;2023-04-24T14:43:42;8.63;;;3.60;;
4650;SDS011;2338;49.602;8.722;2023-04-24T14:46:28;5.20;;;3.50;;
4650;SDS011;2338;49.602;8.722;2023-04-24T14:49:14;5.20;;;3.53;;
4650;SDS011;2338;49.602;8.722;2023-04-24T14:52:00;12.73;;;3.67;;
4650;SDS011;2338;49.602;8.722;2023-04-24T14:54:46;4.07;;;3.17;;
4650;SDS011;2338;49.602;8.722;2023-04-24T14:57:32;6.73;;;3.80;;
4650;SDS011;2338;49.602;8.722;2023-04-24T15:00:20;7.03;;;4.10;;
4650;SDS011;2338;49.602;8.722;2023-04-24T15:03:06;4.50;;;3.53;;
4650;SDS011;2338;49.602;8.722;2023-04-24T15:05:52;7.10;;;4.33;;
4650;SDS011;2338;49.602;8.722;2023-04-24T15:08:38;8.20;;;4.00;;
4650;SDS011;2338;49.602;8.722;2023-04-24T15:11:23;5.70;;;3.80;;
4650;SDS011;2338;49.602;8.722;2023-04-24T15:14:09;6.33;;;3.97;;
4650;SDS011;2338;49.602;8.722;2023-04-24T15:16:56;6.53;;;4.10;;
4650;SDS011;2338;49.602;8.722;2023-04-24T15:19:43;3.37;;;3.03;;
4650;SDS011;2338;49.602;8.722;2023-04-24T15:22:28;7.10;;;4.07;;
4650;SDS011;2338;49.602;8.722;2023-04-24T15:25:14;7.27;;;3.90;;
4650;SDS011;2338;49.602;8.722;2023-04-24T15:27:59;7.47;;;3.00;;
4650;SDS011;2338;49.602;8.722;2023-04-24T15:30:45;10.63;;;4.57;;
4650;SDS011;2338;49.602;8.722;2023-04-24T15:33:32;4.87;;;3.10;;
4650;SDS011;2338;49.602;8.722;2023-04-24T15:36:18;6.00;;;3.80;;
4650;SDS011;2338;49.602;8.722;2023-04-24T15:39:04;5.17;;;3.90;;
4650;SDS011;2338;49.602;8.722;2023-04-24T15:41:50;4.80;;;3.67;;
4650;SDS011;2338;49.602;8.722;2023-04-24T15:44:36;4.87;;;3.77;;
4650;SDS011;2338;49.602;8.722;2023-04-24T15:47:22;5.67;;;3.17;;
4650;SDS011;2338;49.602;8.722;2023-04-24T15:50:10;4.63;;;3.30;;
4650;SDS011;2338;49.602;8.722;2023-04-24T15:52:57;4.63;;;3.77;;
4650;SDS011;2338;49.602;8.722;2023-04-24T15:55:43;4.63;;;3.23;;
4650;SDS011;2338;49.602;8.722;2023-04-24T15:58:29;5.40;;;3.47;;
4650;SDS011;2338;49.602;8.722;2023-04-24T16:01:14;5.43;;;3.80;;
4650;SDS011;2338;49.602;8.722;2023-04-24T16:04:00;4.47;;;3.50;;
4650;SDS011;2338;49.602;8.722;2023-04-24T16:06:47;4.33;;;3.17;;
4650;SDS011;2338;49.602;8.722;2023-04-24T16:09:33;5.60;;;3.70;;
4650;SDS011;2338;49.602;8.722;2023-04-24T16:12:18;4.23;;;3.40;;
4650;SDS011;2338;49.602;8.722;2023-04-24T16:15:04;6.23;;;3.90;;
4650;SDS011;2338;49.602;8.722;2023-04-24T16:17:51;8.37;;;5.20;;
4650;SDS011;2338;49.602;8.722;2023-04-24T16:20:36;6.80;;;4.97;;
4650;SDS011;2338;49.602;8.722;2023-04-24T16:23:23;6.03;;;3.60;;
4650;SDS011;2338;49.602;8.722;2023-04-24T16:26:09;5.13;;;3.40;;
4650;SDS011;2338;49.602;8.722;2023-04-24T16:28:56;10.57;;;3.80;;
4650;SDS011;2338;49.602;8.722;2023-04-24T16:31:42;8.83;;;4.00;;
4650;SDS011;2338;49.602;8.722;2023-04-24T16:34:28;11.27;;;3.97;;
4650;SDS011;2338;49.602;8.722;2023-04-24T16:37:13;5.10;;;3.27;;
4650;SDS011;2338;49.602;8.722;2023-04-24T16:40:01;7.13;;;3.90;;
4650;SDS011;2338;49.602;8.722;2023-04-24T16:42:53;6.30;;;3.63;;
4650;SDS011;2338;49.602;8.722;2023-04-24T16:45:39;6.80;;;3.23;;
4650;SDS011;2338;49.602;8.722;2023-04-24T16:48:24;6.37;;;3.33;;
4650;SDS011;2338;49.602;8.722;2023-04-24T16:51:10;5.50;;;3.73;;
4650;SDS011;2338;49.602;8.722;2023-04-24T16:53:55;5.20;;;3.40;;
4650;SDS011;2338;49.602;8.722;2023-04-24T16:56:42;7.87;;;3.93;;
4650;SDS011;2338;49.602;8.722;2023-04-24T16:59:28;5.20;;;4.23;;
4650;SDS011;2338;49.602;8.722;2023-04-24T17:02:16;5.37;;;3.90;;
4650;SDS011;2338;49.602;8.722;2023-04-24T17:05:02;8.20;;;3.97;;
4650;SDS011;2338;49.602;8.722;2023-04-24T17:07:48;5.33;;;3.57;;
4650;SDS011;2338;49.602;8.722;2023-04-24T17:10:34;17.13;;;3.53;;
4650;SDS011;2338;49.602;8.722;2023-04-24T17:13:21;7.77;;;5.47;;
4650;SDS011;2338;49.602;8.722;2023-04-24T17:16:07;4.23;;;3.23;;